createdAt,value
2018-09-15T00:01:56.096Z,14.90
2018-09-15T00:04:25.591Z,14.90
2018-09-15T00:06:55.148Z,14.90
2018-09-15T00:09:24.723Z,15.00
2018-09-15T00:11:54.196Z,15.00
2018-09-15T00:14:23.717Z,14.90
2018-09-15T00:16:53.307Z,14.80
2018-09-15T00:19:22.902Z,14.80
2018-09-15T00:21:52.515Z,14.60
2018-09-15T00:24:22.156Z,14.60
2018-09-15T00:26:51.809Z,14.40
2018-09-15T00:29:21.450Z,14.40
2018-09-15T00:31:51.060Z,14.40
2018-09-15T00:34:20.679Z,14.30
2018-09-15T00:36:50.355Z,14.20
2018-09-15T00:39:20.081Z,14.20
2018-09-15T00:41:49.697Z,14.10
2018-09-15T00:44:19.134Z,14.10
2018-09-15T00:46:48.711Z,14.10
2018-09-15T00:49:19.091Z,14.20
2018-09-15T00:51:48.655Z,14.20
2018-09-15T00:54:18.158Z,14.20
2018-09-15T00:56:47.926Z,14.30
2018-09-15T00:59:17.494Z,14.20
2018-09-15T01:01:47.128Z,14.20
2018-09-15T01:04:16.980Z,14.20
2018-09-15T01:06:46.579Z,14.30
2018-09-15T01:09:16.631Z,14.30
2018-09-15T01:11:46.303Z,14.30
2018-09-15T01:14:15.970Z,14.30
2018-09-15T01:16:45.501Z,14.40
2018-09-15T01:19:15.046Z,14.40
2018-09-15T01:21:44.607Z,14.40
2018-09-15T01:26:44.993Z,14.40
2018-09-15T01:29:14.600Z,14.40
2018-09-15T01:31:44.135Z,14.50
2018-09-15T01:34:13.746Z,14.40
2018-09-15T01:36:43.297Z,14.40
2018-09-15T01:39:12.705Z,14.40
2018-09-15T01:41:42.269Z,14.40
2018-09-15T01:44:11.772Z,14.40
2018-09-15T01:46:41.358Z,14.50
2018-09-15T01:49:10.961Z,14.30
2018-09-15T01:51:41.411Z,14.30
2018-09-15T01:54:11.039Z,14.30
2018-09-15T01:56:40.628Z,14.30
2018-09-15T01:59:10.233Z,14.30
2018-09-15T02:01:40.033Z,14.40
2018-09-15T02:04:10.190Z,14.40
2018-09-15T02:06:40.075Z,14.40
2018-09-15T02:09:12.097Z,14.50
2018-09-15T02:11:41.746Z,14.50
2018-09-15T02:14:11.210Z,14.40
2018-09-15T02:16:40.986Z,14.40
2018-09-15T02:19:10.608Z,14.30
2018-09-15T02:21:40.156Z,14.40
2018-09-15T02:24:09.686Z,14.50
2018-09-15T02:26:40.052Z,14.50
2018-09-15T02:29:09.863Z,14.50
2018-09-15T02:31:40.159Z,14.50
2018-09-15T02:34:09.782Z,14.50
2018-09-15T02:36:40.281Z,14.60
2018-09-15T02:39:10.341Z,14.60
2018-09-15T02:41:40.195Z,14.60
2018-09-15T02:44:09.608Z,14.50
2018-09-15T02:46:40.156Z,14.50
2018-09-15T02:49:09.847Z,14.50
2018-09-15T02:51:40.283Z,14.50
2018-09-15T02:54:09.789Z,14.50
2018-09-15T02:56:40.367Z,14.60
2018-09-15T02:59:10.551Z,14.60
2018-09-15T03:01:40.238Z,14.60
2018-09-15T03:04:09.819Z,14.50
2018-09-15T03:06:40.236Z,14.60
2018-09-15T03:09:11.693Z,14.40
2018-09-15T03:11:41.395Z,14.30
2018-09-15T03:14:11.518Z,14.20
2018-09-15T03:16:41.094Z,14.20
2018-09-15T03:19:10.547Z,14.20
2018-09-15T03:21:40.255Z,14.20
2018-09-15T03:24:09.802Z,14.20
2018-09-15T03:26:40.279Z,14.10
2018-09-15T03:29:09.883Z,14.10
2018-09-15T03:31:40.262Z,14.10
2018-09-15T03:34:10.233Z,14.10
2018-09-15T03:36:40.275Z,14.10
2018-09-15T03:39:11.416Z,14.20
2018-09-15T03:41:41.443Z,14.20
2018-09-15T03:44:11.235Z,14.30
2018-09-15T03:46:40.821Z,14.30
2018-09-15T03:49:10.380Z,14.40
2018-09-15T03:51:40.354Z,14.40
2018-09-15T03:54:13.728Z,14.40
2018-09-15T03:56:43.312Z,14.40
2018-09-15T03:59:13.031Z,14.30
2018-09-15T04:01:42.647Z,14.30
2018-09-15T04:04:12.356Z,14.40
2018-09-15T04:06:41.779Z,14.40
2018-09-15T04:09:12.523Z,14.50
2018-09-15T04:11:42.123Z,14.60
2018-09-15T04:14:11.568Z,14.60
2018-09-15T04:16:41.181Z,14.60
2018-09-15T04:19:10.749Z,14.70
2018-09-15T04:21:40.432Z,14.70
2018-09-15T04:24:10.053Z,14.60
2018-09-15T04:26:40.391Z,14.70
2018-09-15T04:29:09.901Z,14.70
2018-09-15T04:31:40.368Z,14.70
2018-09-15T04:34:09.916Z,14.60
2018-09-15T04:36:40.520Z,14.50
2018-09-15T04:39:11.877Z,14.50
2018-09-15T04:41:41.749Z,14.60
2018-09-15T04:44:11.339Z,14.60
2018-09-15T04:46:41.017Z,14.50
2018-09-15T04:49:10.654Z,14.60
2018-09-15T04:51:40.532Z,14.50
2018-09-15T04:54:09.911Z,14.60
2018-09-15T04:56:40.444Z,14.60
2018-09-15T04:59:10.035Z,14.70
2018-09-15T05:01:40.599Z,14.80
2018-09-15T05:04:10.222Z,14.80
2018-09-15T05:06:40.706Z,14.90
2018-09-15T05:09:11.551Z,14.90
2018-09-15T05:11:41.087Z,14.90
2018-09-15T05:14:10.710Z,14.90
2018-09-15T05:23:51.766Z,14.90
2018-09-15T05:26:21.327Z,14.70
2018-09-15T05:28:50.845Z,14.70
2018-09-15T05:31:20.506Z,14.60
2018-09-15T05:33:50.132Z,14.60
2018-09-15T05:36:19.599Z,14.70
2018-09-15T05:38:49.091Z,14.60
2018-09-15T05:41:18.714Z,14.60
2018-09-15T05:43:48.380Z,14.70
2018-09-15T05:46:17.881Z,14.50
2018-09-15T05:48:47.739Z,14.50
2018-09-15T05:51:17.222Z,14.60
2018-09-15T05:53:46.607Z,14.60
2018-09-15T05:56:16.050Z,14.60
2018-09-15T05:58:45.648Z,14.60
2018-09-15T06:01:15.362Z,14.60
2018-09-15T06:03:44.825Z,14.60
2018-09-15T06:06:14.402Z,14.50
2018-09-15T06:08:44.018Z,14.50
2018-09-15T06:11:13.656Z,14.60
2018-09-15T06:13:43.325Z,14.60
2018-09-15T06:16:12.886Z,14.70
2018-09-15T06:18:42.371Z,14.80
2018-09-15T06:21:11.997Z,14.90
2018-09-15T06:23:41.594Z,15.00
2018-09-15T06:26:12.612Z,15.00
2018-09-15T06:28:42.519Z,15.00
2018-09-15T06:31:11.995Z,15.00
2018-09-15T06:33:41.572Z,15.00
2018-09-15T06:36:11.046Z,15.00
2018-09-15T06:38:40.659Z,15.00
2018-09-15T06:41:10.126Z,14.90
2018-09-15T06:43:39.651Z,14.90
2018-09-15T06:46:09.182Z,15.00
2018-09-15T06:48:38.796Z,15.00
2018-09-15T06:56:04.010Z,15.10
2018-09-15T06:58:33.562Z,15.00
2018-09-15T07:01:03.100Z,15.00
2018-09-15T07:03:32.722Z,14.90
2018-09-15T07:06:02.271Z,14.90
2018-09-15T07:08:31.859Z,14.90
2018-09-15T07:11:01.464Z,15.00
2018-09-15T07:13:30.907Z,15.00
2018-09-15T07:16:00.423Z,15.00
2018-09-15T07:18:30.051Z,15.00
2018-09-15T07:20:59.822Z,15.00
2018-09-15T07:23:29.402Z,15.00
2018-09-15T07:25:59.083Z,15.00
2018-09-15T07:28:28.521Z,15.00
2018-09-15T07:30:57.964Z,15.00
2018-09-15T07:33:27.391Z,15.10
2018-09-15T07:35:56.975Z,15.10
2018-09-15T07:38:26.428Z,15.10
2018-09-15T07:40:55.855Z,15.10
2018-09-15T07:43:26.694Z,15.20
2018-09-15T07:45:56.209Z,15.20
2018-09-15T07:48:25.776Z,15.20
2018-09-15T07:50:55.187Z,15.20
2018-09-15T07:53:24.755Z,15.30
2018-09-15T07:55:54.183Z,15.30
2018-09-15T07:58:23.760Z,15.40
2018-09-15T08:00:53.321Z,15.40
2018-09-15T08:03:22.898Z,15.40
2018-09-15T08:05:52.478Z,15.50
2018-09-15T08:08:22.035Z,15.50
2018-09-15T08:10:51.483Z,15.50
2018-09-15T08:13:20.955Z,15.60
2018-09-15T08:15:50.566Z,15.60
2018-09-15T08:18:20.093Z,15.60
2018-09-15T08:20:49.626Z,15.70
2018-09-15T08:23:19.069Z,15.80
2018-09-15T08:25:48.699Z,15.80
2018-09-15T08:28:18.273Z,15.70
2018-09-15T08:30:47.919Z,15.60
2018-09-15T08:33:17.490Z,15.70
2018-09-15T08:35:47.197Z,15.70
2018-09-15T08:38:16.804Z,15.80
2018-09-15T08:40:46.399Z,15.70
2018-09-15T08:43:15.932Z,15.60
2018-09-15T08:45:49.451Z,15.60
2018-09-15T08:48:19.170Z,15.60
2018-09-15T08:50:48.730Z,15.80
2018-09-15T08:53:18.213Z,15.90
2018-09-15T08:55:47.906Z,15.90
2018-09-15T08:58:17.448Z,15.90
2018-09-15T09:00:46.885Z,16.00
2018-09-15T09:03:18.812Z,16.00
2018-09-15T09:05:48.281Z,15.90
2018-09-15T09:08:17.843Z,16.00
2018-09-15T09:10:47.474Z,16.10
2018-09-15T09:13:16.957Z,16.00
2018-09-15T09:15:46.503Z,16.10
2018-09-15T09:18:16.084Z,16.10
2018-09-15T09:20:45.637Z,16.10
2018-09-15T09:23:15.211Z,16.10
2018-09-15T09:25:44.799Z,16.10
2018-09-15T09:28:14.484Z,16.00
2018-09-15T09:30:44.067Z,16.10
2018-09-15T09:33:13.553Z,16.20
2018-09-15T09:35:43.010Z,16.30
2018-09-15T09:38:12.694Z,16.20
2018-09-15T09:40:42.181Z,16.30
2018-09-15T09:43:11.702Z,16.20
2018-09-15T09:45:41.350Z,16.20
2018-09-15T09:48:11.707Z,16.30
2018-09-15T09:50:41.211Z,16.50
2018-09-15T09:53:10.679Z,16.50
2018-09-15T09:55:41.231Z,16.50
2018-09-15T09:58:10.911Z,16.60
2018-09-15T10:00:46.279Z,16.50
2018-09-15T10:03:15.780Z,16.50
2018-09-15T10:05:45.352Z,16.40
2018-09-15T10:08:14.962Z,16.20
2018-09-15T10:10:44.401Z,16.00
2018-09-15T10:13:14.008Z,15.90
2018-09-15T10:15:43.510Z,15.80
2018-09-15T10:18:13.897Z,15.80
2018-09-15T10:20:43.535Z,15.70
2018-09-15T10:23:13.090Z,15.60
2018-09-15T10:25:42.761Z,15.60
2018-09-15T10:28:12.376Z,15.60
2018-09-15T10:30:41.987Z,15.60
2018-09-15T10:33:11.527Z,15.60
2018-09-15T10:35:41.161Z,15.60
2018-09-15T10:38:10.594Z,15.60
2018-09-15T10:40:40.974Z,15.60
2018-09-15T10:43:10.687Z,15.50
2018-09-15T10:45:41.095Z,15.50
2018-09-15T10:48:10.564Z,15.50
2018-09-15T10:50:41.053Z,15.50
2018-09-15T10:53:10.536Z,15.50
2018-09-15T10:55:41.057Z,15.50
2018-09-15T10:58:10.535Z,15.50
2018-09-15T11:00:41.095Z,15.50
2018-09-15T11:03:10.576Z,15.40
2018-09-15T11:05:41.271Z,15.40
2018-09-15T11:08:10.832Z,15.40
2018-09-15T11:10:41.329Z,15.40
2018-09-15T11:13:11.341Z,15.50
2018-09-15T11:15:41.341Z,15.50
2018-09-15T11:18:10.952Z,15.40
2018-09-15T11:20:41.395Z,15.50
2018-09-15T11:23:10.810Z,15.60
2018-09-15T11:25:41.987Z,15.70
2018-09-15T11:28:11.612Z,15.80
2018-09-15T11:30:41.730Z,15.80
2018-09-15T11:33:11.205Z,15.80
2018-09-15T11:35:41.538Z,15.80
2018-09-15T11:38:11.134Z,15.90
2018-09-15T11:40:41.399Z,15.90
2018-09-15T11:43:11.124Z,15.90
2018-09-15T11:45:41.282Z,15.80
2018-09-15T11:48:10.823Z,15.70
2018-09-15T11:55:35.132Z,15.80
2018-09-15T11:58:04.568Z,15.80
2018-09-15T12:00:36.333Z,15.90
2018-09-15T12:03:05.944Z,16.00
2018-09-15T12:05:35.548Z,16.20
2018-09-15T12:08:05.108Z,16.10
2018-09-15T12:10:34.587Z,15.90
2018-09-15T12:13:04.062Z,15.90
2018-09-15T12:15:33.484Z,15.90
2018-09-15T12:18:02.999Z,16.00
2018-09-15T12:20:32.616Z,16.10
2018-09-15T12:23:02.280Z,16.10
2018-09-15T12:25:31.951Z,16.20
2018-09-15T12:28:01.620Z,16.20
2018-09-15T12:30:31.066Z,16.30
2018-09-15T12:33:00.643Z,16.40
2018-09-15T12:35:30.199Z,16.50
2018-09-15T12:37:59.732Z,16.60
2018-09-15T12:40:29.238Z,16.80
2018-09-15T12:42:58.691Z,16.80
2018-09-15T12:45:28.232Z,16.90
2018-09-15T12:47:57.753Z,16.90
2018-09-15T12:50:27.220Z,17.10
2018-09-15T12:55:17.637Z,17.10
2018-09-15T12:57:47.285Z,17.20
2018-09-15T13:00:16.719Z,17.40
2018-09-15T13:02:46.282Z,17.30
2018-09-15T13:05:15.873Z,17.30
2018-09-15T13:07:45.386Z,17.30
2018-09-15T13:10:14.970Z,17.50
2018-09-15T13:12:44.527Z,17.60
2018-09-15T13:15:14.076Z,17.70
2018-09-15T13:17:43.805Z,17.70
2018-09-15T13:20:13.239Z,17.70
2018-09-15T13:22:42.846Z,17.70
2018-09-15T13:25:12.418Z,17.70
2018-09-15T13:27:42.023Z,17.70
2018-09-15T13:30:11.603Z,17.70
2018-09-15T13:32:41.567Z,17.60
2018-09-15T13:35:11.118Z,17.60
2018-09-15T13:37:41.718Z,17.50
2018-09-15T13:40:11.119Z,17.30
2018-09-15T13:42:41.457Z,17.20
2018-09-15T13:45:11.037Z,17.20
2018-09-15T13:47:41.813Z,17.00
2018-09-15T13:50:11.252Z,17.00
2018-09-15T13:52:41.629Z,16.90
2018-09-15T13:55:11.191Z,16.90
2018-09-15T13:57:41.547Z,17.00
2018-09-15T14:00:11.186Z,17.00
2018-09-15T14:02:42.578Z,17.10
2018-09-15T14:05:13.669Z,17.10
2018-09-15T14:07:43.651Z,17.10
2018-09-15T14:10:19.009Z,17.10
2018-09-15T14:12:42.862Z,17.20
2018-09-15T14:15:12.448Z,17.20
2018-09-15T14:17:41.853Z,17.30
2018-09-15T14:20:11.414Z,17.40
2018-09-15T14:22:41.920Z,17.40
2018-09-15T14:25:11.308Z,17.40
2018-09-15T14:27:41.879Z,17.40
2018-09-15T14:30:11.407Z,17.40
2018-09-15T14:32:41.754Z,17.40
2018-09-15T14:35:11.118Z,17.30
2018-09-15T14:37:40.482Z,17.30
2018-09-15T14:40:09.822Z,17.30
2018-09-15T14:42:39.231Z,17.30
2018-09-15T14:45:08.542Z,17.30
2018-09-15T14:47:37.914Z,17.30
2018-09-15T14:50:07.493Z,17.30
2018-09-15T14:52:36.954Z,17.20
2018-09-15T14:55:06.454Z,17.20
2018-09-15T14:57:36.106Z,17.10
2018-09-15T15:00:07.157Z,16.90
2018-09-15T15:02:36.729Z,16.90
2018-09-15T15:05:06.290Z,16.80
2018-09-15T15:07:36.014Z,16.70
2018-09-15T15:10:05.531Z,16.60
2018-09-15T15:12:35.054Z,16.50
2018-09-15T15:15:04.606Z,16.50
2018-09-15T15:17:34.156Z,16.50
2018-09-15T15:20:03.823Z,16.50
2018-09-15T15:22:33.338Z,16.50
2018-09-15T15:25:04.510Z,16.40
2018-09-15T15:27:34.031Z,16.40
2018-09-15T15:30:03.579Z,16.30
2018-09-15T15:32:32.999Z,16.30
2018-09-15T15:35:02.334Z,16.30
2018-09-15T15:37:32.324Z,16.30
2018-09-15T15:40:01.635Z,16.30
2018-09-15T15:42:31.087Z,16.30
2018-09-15T15:45:00.606Z,16.20
2018-09-15T15:47:30.309Z,16.30
2018-09-15T15:49:59.887Z,16.30
2018-09-15T15:52:29.226Z,16.30
2018-09-15T15:54:58.766Z,16.20
2018-09-15T15:57:28.264Z,16.10
2018-09-15T15:59:57.731Z,16.00
2018-09-15T16:02:27.203Z,16.00
2018-09-15T16:04:56.722Z,16.00
2018-09-15T16:07:26.228Z,16.00
2018-09-15T16:09:55.579Z,16.00
2018-09-15T16:12:25.063Z,16.00
2018-09-15T16:14:54.418Z,16.00
2018-09-15T16:17:23.746Z,16.00
2018-09-15T16:19:53.108Z,15.90
2018-09-15T16:22:22.680Z,15.90
2018-09-15T16:24:52.238Z,15.90
2018-09-15T16:27:21.755Z,15.90
2018-09-15T16:29:51.251Z,15.90
2018-09-15T16:32:20.724Z,15.80
2018-09-15T16:34:50.287Z,15.70
2018-09-15T16:37:19.966Z,15.70
2018-09-15T16:39:49.415Z,15.70
2018-09-15T16:42:19.245Z,15.70
2018-09-15T16:44:48.902Z,15.70
2018-09-15T16:47:18.238Z,15.70
2018-09-15T16:49:47.763Z,15.60
2018-09-15T16:52:17.246Z,15.50
2018-09-15T16:54:46.658Z,15.50
2018-09-15T16:57:16.197Z,15.50
2018-09-15T16:59:45.710Z,15.30
2018-09-15T17:02:15.218Z,15.20
2018-09-15T17:04:45.376Z,15.10
2018-09-15T17:07:14.923Z,15.00
2018-09-15T17:09:44.439Z,14.90
2018-09-15T17:12:13.811Z,14.80
2018-09-15T17:19:39.021Z,14.70
2018-09-15T17:22:08.558Z,14.60
2018-09-15T17:24:38.019Z,14.50
2018-09-15T17:27:07.674Z,14.40
2018-09-15T17:29:37.287Z,14.40
2018-09-15T17:32:07.044Z,14.30
2018-09-15T17:34:36.570Z,14.20
2018-09-15T17:37:06.155Z,14.20
2018-09-15T17:39:35.678Z,14.10
2018-09-15T17:42:05.151Z,14.10
2018-09-15T17:44:34.636Z,14.10
2018-09-15T17:47:04.157Z,14.00
2018-09-15T17:49:33.612Z,13.90
2018-09-15T17:52:03.095Z,13.90
2018-09-15T17:54:32.679Z,13.90
2018-09-15T17:57:02.134Z,13.80
2018-09-15T17:59:31.491Z,13.60
2018-09-15T18:02:00.974Z,13.60
2018-09-15T18:04:30.400Z,13.50
2018-09-15T18:06:59.745Z,13.50
2018-09-15T18:12:03.909Z,13.40
2018-09-15T18:14:33.295Z,13.30
2018-09-15T18:17:02.674Z,13.30
2018-09-15T18:19:32.191Z,13.30
2018-09-15T18:22:01.575Z,13.30
2018-09-15T18:24:31.104Z,13.40
2018-09-15T18:27:00.438Z,13.50
2018-09-15T18:29:29.825Z,13.60
2018-09-15T18:31:59.257Z,13.70
2018-09-15T18:34:28.762Z,13.70
2018-09-15T18:36:58.339Z,13.70
2018-09-15T18:39:28.015Z,13.70
2018-09-15T18:41:57.443Z,13.60
2018-09-15T18:44:26.847Z,13.60
2018-09-15T18:46:56.444Z,13.50
2018-09-15T18:49:25.914Z,13.50
2018-09-15T18:51:55.412Z,13.50
2018-09-15T18:54:24.882Z,13.40
2018-09-15T18:56:54.365Z,13.40
2018-09-15T18:59:23.852Z,13.40
2018-09-15T19:01:53.231Z,13.40
2018-09-15T19:04:22.623Z,13.40
2018-09-15T19:06:52.035Z,13.40
2018-09-15T19:09:22.467Z,13.50
2018-09-15T19:11:51.818Z,13.40
2018-09-15T19:14:21.244Z,13.40
2018-09-15T19:16:50.750Z,13.50
2018-09-15T19:19:20.284Z,13.40
2018-09-15T19:21:50.258Z,13.40
2018-09-15T19:24:19.787Z,13.30
2018-09-15T19:26:49.447Z,13.30
2018-09-15T19:29:18.855Z,13.30
2018-09-15T19:31:48.394Z,13.30
2018-09-15T19:34:17.871Z,13.30
2018-09-15T19:36:47.454Z,13.30
2018-09-15T19:39:16.948Z,13.30
2018-09-15T19:41:46.492Z,13.20
2018-09-15T19:44:16.035Z,13.10
2018-09-15T19:46:45.472Z,13.10
2018-09-15T19:49:14.960Z,13.00
2018-09-15T19:51:44.500Z,12.90
2018-09-15T19:54:13.990Z,12.80
2018-09-15T19:56:43.446Z,12.70
2018-09-15T19:59:13.012Z,12.50
2018-09-15T20:01:42.490Z,12.50
2018-09-15T20:04:11.848Z,12.30
2018-09-15T20:06:41.286Z,12.20
2018-09-15T20:09:11.554Z,12.10
2018-09-15T20:11:41.059Z,12.00
2018-09-15T20:14:10.711Z,11.90
2018-09-15T20:16:39.087Z,11.80
2018-09-15T20:19:07.452Z,11.70
2018-09-15T20:21:35.735Z,11.60
2018-09-15T20:24:05.251Z,11.60
2018-09-15T20:26:35.096Z,11.50
2018-09-15T20:29:04.606Z,11.50
2018-09-15T20:31:34.127Z,11.40
2018-09-15T20:34:03.669Z,11.40
2018-09-15T20:38:58.452Z,11.30
2018-09-15T20:41:27.938Z,11.20
2018-09-15T20:43:58.133Z,11.20
2018-09-15T20:46:27.551Z,11.10
2018-09-15T20:48:57.080Z,11.10
2018-09-15T20:51:26.363Z,11.10
2018-09-15T20:53:57.247Z,11.10
2018-09-15T20:56:26.773Z,11.10
2018-09-15T20:58:56.259Z,11.20
2018-09-15T21:01:25.758Z,11.20
2018-09-15T21:03:55.152Z,11.20
2018-09-15T21:06:24.674Z,11.20
2018-09-15T21:08:54.151Z,11.10
2018-09-15T21:11:23.722Z,11.10
2018-09-15T21:13:53.200Z,11.10
2018-09-15T21:16:22.741Z,11.00
2018-09-15T21:18:52.234Z,10.90
2018-09-15T21:21:21.738Z,10.90
2018-09-15T21:23:51.235Z,10.80
2018-09-15T21:26:20.722Z,10.80
2018-09-15T21:28:50.130Z,10.70
2018-09-15T21:31:19.598Z,10.70
2018-09-15T21:33:48.987Z,10.60
2018-09-15T21:36:18.362Z,10.60
2018-09-15T21:38:47.769Z,10.60
2018-09-15T21:41:17.159Z,10.50
2018-09-15T21:43:46.479Z,10.40
2018-09-15T21:46:16.067Z,10.40
2018-09-15T21:48:45.431Z,10.40
2018-09-15T21:51:14.931Z,10.40
2018-09-15T21:53:44.460Z,10.40
2018-09-15T21:56:13.850Z,10.30
2018-09-15T21:58:43.242Z,10.20
2018-09-15T22:01:12.758Z,10.20
2018-09-15T22:03:48.206Z,10.20
2018-09-15T22:06:18.624Z,10.20
2018-09-15T22:08:48.081Z,10.10
2018-09-15T22:11:17.631Z,10.10
2018-09-15T22:13:47.147Z,10.10
2018-09-15T22:16:16.796Z,10.10
2018-09-15T22:18:46.369Z,10.10
2018-09-15T22:21:15.980Z,10.00
2018-09-15T22:23:45.866Z,10.10
2018-09-15T22:26:15.515Z,10.10
2018-09-15T22:28:44.979Z,10.10
2018-09-15T22:31:14.435Z,10.10
2018-09-15T22:33:43.993Z,10.10
2018-09-15T22:36:13.519Z,10.10
2018-09-15T22:38:43.158Z,10.10
2018-09-15T22:41:12.794Z,10.10
2018-09-15T22:43:43.090Z,10.00
2018-09-15T22:46:12.755Z,10.00
2018-09-15T22:48:42.955Z,9.90
2018-09-15T22:51:12.596Z,9.80
2018-09-15T22:53:43.047Z,9.80
2018-09-15T22:56:12.499Z,9.80
2018-09-15T22:58:43.074Z,9.70
2018-09-15T23:01:12.827Z,9.70
2018-09-15T23:03:42.987Z,9.70
2018-09-15T23:06:12.565Z,9.70
2018-09-15T23:08:43.037Z,9.70
2018-09-15T23:11:12.639Z,9.70
2018-09-15T23:13:43.366Z,9.70
2018-09-15T23:16:12.778Z,9.70
2018-09-15T23:18:43.088Z,9.70
2018-09-15T23:21:12.536Z,9.60
2018-09-15T23:23:43.029Z,9.60
2018-09-15T23:26:12.669Z,9.60
2018-09-15T23:28:43.091Z,9.60
2018-09-15T23:31:12.695Z,9.70
2018-09-15T23:33:43.290Z,9.70
2018-09-15T23:36:12.894Z,9.70
2018-09-15T23:38:43.356Z,9.70
2018-09-15T23:41:12.948Z,9.70
2018-09-15T23:43:43.161Z,9.80
2018-09-15T23:46:12.772Z,9.90
2018-09-15T23:51:07.344Z,9.90
2018-09-15T23:53:36.815Z,10.00
2018-09-15T23:56:06.280Z,10.10
2018-09-15T23:58:35.891Z,10.10
